Time,TemperatureF,DewpointF,PressureIn,WindDirection,WindDirectionDegrees,WindSpeedMPH,WindSpeedGustMPH,Humidity,HourlyPrecipIn,Conditions,Clouds,dailyrainin,SoftwareType,DateUTC
2013-01-11 00:00:00,27.1,23.2,29.88,NW,315,0.0,0.0,85,0.00,,,0.00,WeatherCatV1.12B45,2013-01-11 08:00:00,
2013-01-11 00:05:00,27.1,23.2,29.88,NW,314,0.0,0.0,85,0.00,,,0.00,WeatherCatV1.12B45,2013-01-11 08:05:00,
2013-01-11 00:10:00,27.0,22.8,29.88,NW,314,0.0,0.0,84,0.00,,,0.00,WeatherCatV1.12B45,2013-01-11 08:10:00,
2013-01-11 00:15:00,26.8,22.6,29.88,NW,314,0.0,0.0,84,0.00,,,0.00,WeatherCatV1.12B45,2013-01-11 08:15:00,
2013-01-11 00:20:00,26.6,22.4,29.88,North,0,0.0,0.0,84,0.00,,,0.00,WeatherCatV1.12B45,2013-01-11 08:20:00,
2013-01-11 00:25:00,26.4,22.3,29.88,NW,322,0.0,3.1,84,0.00,,,0.00,WeatherCatV1.12B45,2013-01-11 08:25:00,
2013-01-11 00:30:00,26.1,21.9,29.88,NW,322,0.0,0.0,84,0.00,,,0.00,WeatherCatV1.12B45,2013-01-11 08:30:00,
2013-01-11 00:35:00,26.1,21.9,29.88,ESE,106,0.0,0.0,84,0.00,,,0.00,WeatherCatV1.12B45,2013-01-11 08:35:00,
2013-01-11 00:40:00,25.7,21.5,29.88,ESE,106,0.0,0.0,84,0.00,,,0.00,WeatherCatV1.12B45,2013-01-11 08:40:00,
2013-01-11 00:45:00,25.5,21.4,29.88,ESE,106,0.0,0.0,84,0.00,,,0.00,WeatherCatV1.12B45,2013-01-11 08:45:00,
2013-01-11 00:50:00,25.2,21.0,29.88,ESE,106,0.0,0.0,84,0.00,,,0.00,WeatherCatV1.12B45,2013-01-11 08:50:00,
2013-01-11 00:55:00,24.6,20.5,29.88,ESE,106,0.0,0.0,84,0.00,,,0.00,WeatherCatV1.12B45,2013-01-11 08:55:00,
2013-01-11 01:00:00,24.6,20.5,29.88,ESE,106,0.0,0.0,84,0.00,,,0.00,WeatherCatV1.12B45,2013-01-11 09:00:00,
2013-01-11 01:06:00,24.4,20.3,29.88,ESE,106,0.0,0.0,84,0.00,,,0.00,WeatherCatV1.12B45,2013-01-11 09:06:00,
2013-01-11 01:11:00,24.3,20.1,29.91,ESE,106,0.0,0.0,84,0.00,,,0.00,WeatherCatV1.12B45,2013-01-11 09:11:00,
2013-01-11 01:16:00,24.1,20.0,29.91,ESE,106,0.0,0.0,84,0.00,,,0.00,WeatherCatV1.12B45,2013-01-11 09:16:00,
2013-01-11 01:21:00,23.9,19.8,29.91,ESE,106,0.0,0.0,84,0.00,,,0.00,WeatherCatV1.12B45,2013-01-11 09:21:00,
2013-01-11 01:26:00,23.9,19.8,29.91,ESE,106,0.0,0.0,84,0.00,,,0.00,WeatherCatV1.12B45,2013-01-11 09:26:00,
2013-01-11 01:31:00,23.9,19.8,29.91,ESE,106,0.0,0.0,84,0.00,,,0.00,WeatherCatV1.12B45,2013-01-11 09:31:00,
2013-01-11 01:36:00,24.1,20.2,29.91,ESE,106,0.0,0.0,85,0.00,,,0.00,WeatherCatV1.12B45,2013-01-11 09:36:00,
2013-01-11 01:41:00,24.1,20.2,29.91,ESE,106,0.0,0.0,85,0.00,,,0.00,WeatherCatV1.12B45,2013-01-11 09:41:00,
2013-01-11 01:46:00,24.1,20.2,29.91,ESE,106,0.0,0.0,85,0.00,,,0.00,WeatherCatV1.12B45,2013-01-11 09:46:00,
2013-01-11 01:51:00,24.4,20.6,29.91,ESE,106,0.0,0.0,85,0.00,,,0.00,WeatherCatV1.12B45,2013-01-11 09:51:00,
2013-01-11 01:56:00,24.4,20.6,29.91,ESE,106,0.0,0.0,85,0.00,,,0.00,WeatherCatV1.12B45,2013-01-11 09:56:00,
2013-01-11 02:01:00,24.6,20.8,29.91,ESE,106,0.0,0.0,85,0.00,,,0.00,WeatherCatV1.12B45,2013-01-11 10:01:00,
2013-01-11 02:06:00,24.8,21.2,29.91,North,353,0.0,0.0,86,0.00,,,0.00,WeatherCatV1.12B45,2013-01-11 10:06:00,
2013-01-11 02:11:00,25.0,21.4,29.91,North,353,0.0,0.0,86,0.00,,,0.00,WeatherCatV1.12B45,2013-01-11 10:11:00,
2013-01-11 02:16:00,25.3,21.8,29.91,North,353,0.0,0.0,86,0.00,,,0.00,WeatherCatV1.12B45,2013-01-11 10:16:00,
2013-01-11 02:21:00,25.3,21.8,29.94,North,353,0.0,0.0,86,0.00,,,0.00,WeatherCatV1.12B45,2013-01-11 10:21:00,
2013-01-11 02:26:00,25.5,21.9,29.94,NNW,334,0.0,0.0,86,0.00,,,0.00,WeatherCatV1.12B45,2013-01-11 10:26:00,
2013-01-11 02:31:00,25.3,21.8,29.94,NNW,334,0.0,0.0,86,0.00,,,0.00,WeatherCatV1.12B45,2013-01-11 10:31:00,
2013-01-11 02:36:00,25.3,21.8,29.94,NNW,334,0.0,0.0,86,0.00,,,0.00,WeatherCatV1.12B45,2013-01-11 10:36:00,
2013-01-11 02:41:00,25.5,21.9,29.94,NNW,334,0.0,0.0,86,0.00,,,0.00,WeatherCatV1.12B45,2013-01-11 10:41:00,
2013-01-11 02:46:00,25.5,21.9,29.94,NNW,334,0.0,0.0,86,0.00,,,0.00,WeatherCatV1.12B45,2013-01-11 10:46:00,
2013-01-11 02:51:00,25.5,21.9,29.94,NNW,334,0.0,0.0,86,0.00,,,0.00,WeatherCatV1.12B45,2013-01-11 10:51:00,
2013-01-11 02:56:00,25.5,21.9,29.94,NNW,334,0.0,0.0,86,0.00,,,0.00,WeatherCatV1.12B45,2013-01-11 10:56:00,
2013-01-11 03:01:00,25.3,21.8,29.94,NNW,334,0.0,0.0,86,0.00,,,0.00,WeatherCatV1.12B45,2013-01-11 11:01:00,
2013-01-11 03:06:00,25.3,21.8,29.94,NNW,329,0.0,0.0,86,0.00,,,0.00,WeatherCatV1.12B45,2013-01-11 11:06:00,
2013-01-11 03:11:00,25.2,21.3,29.94,NNW,334,0.0,0.0,85,0.00,,,0.00,WeatherCatV1.12B45,2013-01-11 11:11:00,
2013-01-11 03:16:00,25.0,21.1,29.94,NNW,334,0.0,0.0,85,0.00,,,0.00,WeatherCatV1.12B45,2013-01-11 11:16:00,
2013-01-11 03:21:00,24.6,20.8,29.94,NNW,334,0.0,0.0,85,0.00,,,0.00,WeatherCatV1.12B45,2013-01-11 11:21:00,
2013-01-11 03:26:00,24.6,20.8,29.94,WNW,289,0.0,0.0,85,0.00,,,0.00,WeatherCatV1.12B45,2013-01-11 11:26:00,
2013-01-11 03:31:00,24.4,20.3,29.94,WNW,289,0.0,0.0,84,0.00,,,0.00,WeatherCatV1.12B45,2013-01-11 11:31:00,
2013-01-11 03:36:00,24.1,20.0,29.94,WNW,289,0.0,0.0,84,0.00,,,0.00,WeatherCatV1.12B45,2013-01-11 11:36:00,
2013-01-11 03:41:00,23.9,19.5,29.94,WNW,289,0.0,0.0,83,0.00,,,0.00,WeatherCatV1.12B45,2013-01-11 11:41:00,
2013-01-11 03:46:00,23.7,19.3,29.94,WNW,289,0.0,0.0,83,0.00,,,0.00,WeatherCatV1.12B45,2013-01-11 11:46:00,
2013-01-11 03:51:00,23.7,19.3,29.94,WNW,289,0.0,0.0,83,0.00,,,0.00,WeatherCatV1.12B45,2013-01-11 11:51:00,
2013-01-11 03:56:00,23.5,19.2,29.94,WNW,288,0.0,0.0,83,0.00,,,0.00,WeatherCatV1.12B45,2013-01-11 11:56:00,
2013-01-11 04:01:00,23.5,19.2,29.94,WNW,289,0.0,0.0,83,0.00,,,0.00,WeatherCatV1.12B45,2013-01-11 12:01:00,
2013-01-11 04:06:00,23.5,19.2,29.94,WNW,289,0.0,0.0,83,0.00,,,0.00,WeatherCatV1.12B45,2013-01-11 12:06:00,
2013-01-11 04:11:00,23.5,19.2,29.94,WNW,288,0.0,0.0,83,0.00,,,0.00,WeatherCatV1.12B45,2013-01-11 12:11:00,
2013-01-11 04:16:00,23.5,19.2,29.94,WNW,286,0.0,0.0,83,0.00,,,0.00,WeatherCatV1.12B45,2013-01-11 12:16:00,
2013-01-11 04:21:00,23.7,19.6,29.94,WNW,287,0.0,0.0,84,0.00,,,0.00,WeatherCatV1.12B45,2013-01-11 12:21:00,
2013-01-11 04:26:00,23.7,19.6,29.94,WNW,287,0.0,0.0,84,0.00,,,0.00,WeatherCatV1.12B45,2013-01-11 12:26:00,
2013-01-11 04:31:00,24.1,20.0,29.94,WNW,302,0.0,0.0,84,0.00,,,0.00,WeatherCatV1.12B45,2013-01-11 12:31:00,
2013-01-11 04:36:00,24.1,20.0,29.94,WNW,302,0.0,0.0,84,0.00,,,0.00,WeatherCatV1.12B45,2013-01-11 12:36:00,
2013-01-11 04:41:00,24.1,20.0,29.94,WNW,302,0.0,0.0,84,0.00,,,0.00,WeatherCatV1.12B45,2013-01-11 12:41:00,
2013-01-11 04:46:00,24.4,20.3,29.94,WNW,302,0.0,0.0,84,0.00,,,0.00,WeatherCatV1.12B45,2013-01-11 12:46:00,
2013-01-11 04:51:00,24.4,20.3,29.97,WNW,302,0.0,0.0,84,0.00,,,0.00,WeatherCatV1.12B45,2013-01-11 12:51:00,
2013-01-11 04:56:00,24.6,20.5,29.97,WNW,302,0.0,0.0,84,0.00,,,0.00,WeatherCatV1.12B45,2013-01-11 12:56:00,
2013-01-11 05:01:00,24.4,20.3,29.97,WNW,302,0.0,0.0,84,0.00,,,0.00,WeatherCatV1.12B45,2013-01-11 13:01:00,
2013-01-11 05:06:00,24.3,20.1,29.97,WNW,302,0.0,0.0,84,0.00,,,0.00,WeatherCatV1.12B45,2013-01-11 13:06:00,
2013-01-11 05:11:00,24.1,19.7,29.97,WNW,302,0.0,0.0,83,0.00,,,0.00,WeatherCatV1.12B45,2013-01-11 13:11:00,
2013-01-11 05:16:00,23.9,19.5,29.97,WNW,302,0.0,0.0,83,0.00,,,0.00,WeatherCatV1.12B45,2013-01-11 13:16:00,
2013-01-11 05:21:00,23.7,19.3,29.97,WNW,302,0.0,0.0,83,0.00,,,0.00,WeatherCatV1.12B45,2013-01-11 13:21:00,
2013-01-11 05:26:00,23.7,19.3,29.97,WNW,302,0.0,0.0,83,0.00,,,0.00,WeatherCatV1.12B45,2013-01-11 13:26:00,
2013-01-11 05:31:00,23.5,19.2,29.97,WNW,302,0.0,0.0,83,0.00,,,0.00,WeatherCatV1.12B45,2013-01-11 13:31:00,
2013-01-11 05:36:00,23.5,19.2,29.97,WNW,302,0.0,0.0,83,0.00,,,0.00,WeatherCatV1.12B45,2013-01-11 13:36:00,
2013-01-11 05:41:00,23.5,19.2,29.97,WNW,302,0.0,0.0,83,0.00,,,0.00,WeatherCatV1.12B45,2013-01-11 13:41:00,
2013-01-11 05:46:00,23.4,18.7,29.97,WNW,302,0.0,0.0,82,0.00,,,0.00,WeatherCatV1.12B45,2013-01-11 13:46:00,
2013-01-11 05:51:00,23.2,18.5,30.00,WNW,302,0.0,0.0,82,0.00,,,0.00,WeatherCatV1.12B45,2013-01-11 13:51:00,
2013-01-11 05:56:00,23.0,18.3,30.00,WNW,302,0.0,0.0,82,0.00,,,0.00,WeatherCatV1.12B45,2013-01-11 13:56:00,
2013-01-11 06:01:00,22.8,18.2,30.00,WNW,302,0.0,0.0,82,0.00,,,0.00,WeatherCatV1.12B45,2013-01-11 14:01:00,
2013-01-11 06:06:00,22.8,18.2,30.00,WNW,302,0.0,0.0,82,0.00,,,0.00,WeatherCatV1.12B45,2013-01-11 14:06:00,
2013-01-11 06:11:00,22.8,18.2,30.00,WNW,302,0.0,0.0,82,0.00,,,0.00,WeatherCatV1.12B45,2013-01-11 14:11:00,
2013-01-11 06:16:00,22.8,18.2,30.00,WNW,302,0.0,3.1,82,0.00,,,0.00,WeatherCatV1.12B45,2013-01-11 14:16:00,
2013-01-11 06:21:00,22.8,18.2,30.00,WNW,302,0.0,0.0,82,0.00,,,0.00,WeatherCatV1.12B45,2013-01-11 14:21:00,
2013-01-11 06:26:00,23.0,18.3,30.00,WNW,302,0.0,0.0,82,0.00,,,0.00,WeatherCatV1.12B45,2013-01-11 14:26:00,
2013-01-11 06:31:00,23.0,18.3,30.00,WNW,302,0.0,0.0,82,0.00,,,0.00,WeatherCatV1.12B45,2013-01-11 14:31:00,
2013-01-11 06:36:00,23.0,18.3,30.00,WNW,302,0.0,0.0,82,0.00,,,0.00,WeatherCatV1.12B45,2013-01-11 14:36:00,
2013-01-11 06:41:00,23.2,18.5,30.00,WNW,302,0.0,0.0,82,0.00,,,0.00,WeatherCatV1.12B45,2013-01-11 14:41:00,
2013-01-11 06:46:00,23.2,18.5,30.00,WNW,302,0.0,0.0,82,0.00,,,0.00,WeatherCatV1.12B45,2013-01-11 14:46:00,
2013-01-11 06:51:00,23.0,18.3,30.03,WNW,302,0.0,0.0,82,0.00,,,0.00,WeatherCatV1.12B45,2013-01-11 14:51:00,
2013-01-11 06:56:00,22.8,17.9,30.03,SW,236,0.0,0.0,81,0.00,,,0.00,WeatherCatV1.12B45,2013-01-11 14:56:00,
2013-01-11 07:01:00,23.0,18.3,30.03,SW,236,0.0,0.0,82,0.00,,,0.00,WeatherCatV1.12B45,2013-01-11 15:01:00,
2013-01-11 07:06:00,23.0,18.3,30.03,WSW,238,0.0,0.0,82,0.00,,,0.00,WeatherCatV1.12B45,2013-01-11 15:06:00,
2013-01-11 07:11:00,22.8,17.9,30.03,SW,236,0.0,0.0,81,0.00,,,0.00,WeatherCatV1.12B45,2013-01-11 15:11:00,
2013-01-11 07:16:00,22.6,17.7,30.03,SW,234,0.0,0.0,81,0.00,,,0.00,WeatherCatV1.12B45,2013-01-11 15:16:00,
2013-01-11 07:21:00,22.3,17.1,30.03,SW,236,0.0,0.0,80,0.00,,,0.00,WeatherCatV1.12B45,2013-01-11 15:21:00,
2013-01-11 07:26:00,22.1,16.9,30.03,SW,236,0.0,0.0,80,0.00,,,0.00,WeatherCatV1.12B45,2013-01-11 15:26:00,
2013-01-11 07:31:00,21.9,16.7,30.03,SW,236,0.0,0.0,80,0.00,,,0.00,WeatherCatV1.12B45,2013-01-11 15:31:00,
2013-01-11 07:36:00,21.9,16.7,30.06,SW,236,0.0,0.0,80,0.00,,,0.00,WeatherCatV1.12B45,2013-01-11 15:36:00,
2013-01-11 07:41:00,22.1,16.9,30.06,West,272,0.0,0.0,80,0.00,,,0.00,WeatherCatV1.12B45,2013-01-11 15:41:00,
2013-01-11 07:46:00,21.9,16.7,30.06,West,272,0.0,0.0,80,0.00,,,0.00,WeatherCatV1.12B45,2013-01-11 15:46:00,
2013-01-11 07:51:00,21.9,16.7,30.06,West,272,0.0,0.0,80,0.00,,,0.00,WeatherCatV1.12B45,2013-01-11 15:51:00,
2013-01-11 07:56:00,21.7,16.2,30.06,West,272,0.0,0.0,79,0.00,,,0.00,WeatherCatV1.12B45,2013-01-11 15:56:00,
2013-01-11 08:01:00,21.6,16.1,30.06,West,272,0.0,0.0,79,0.00,,,0.00,WeatherCatV1.12B45,2013-01-11 16:01:00,
2013-01-11 08:06:00,21.7,16.2,30.06,West,272,0.0,0.0,79,0.00,,,0.00,WeatherCatV1.12B45,2013-01-11 16:06:00,
2013-01-11 08:11:00,21.9,16.4,30.06,West,272,0.0,0.0,79,0.00,,,0.00,WeatherCatV1.12B45,2013-01-11 16:11:00,
2013-01-11 08:16:00,21.9,16.4,30.06,West,272,0.0,0.0,79,0.00,,,0.00,WeatherCatV1.12B45,2013-01-11 16:16:00,
2013-01-11 08:21:00,21.9,16.1,30.06,West,272,0.0,0.0,78,0.00,,,0.00,WeatherCatV1.12B45,2013-01-11 16:21:00,
2013-01-11 08:26:00,21.7,16.0,30.06,West,272,0.0,0.0,78,0.00,,,0.00,WeatherCatV1.12B45,2013-01-11 16:26:00,
2013-01-11 08:31:00,21.7,16.0,30.06,West,272,0.0,0.0,78,0.00,,,0.00,WeatherCatV1.12B45,2013-01-11 16:31:00,
2013-01-11 08:36:00,21.9,16.1,30.06,West,272,0.0,0.0,78,0.00,,,0.00,WeatherCatV1.12B45,2013-01-11 16:36:00,
2013-01-11 08:41:00,22.1,16.3,30.06,West,272,0.0,0.0,78,0.00,,,0.00,WeatherCatV1.12B45,2013-01-11 16:41:00,
2013-01-11 08:46:00,22.6,16.8,30.06,West,272,0.0,0.0,78,0.00,,,0.00,WeatherCatV1.12B45,2013-01-11 16:46:00,
2013-01-11 08:51:00,23.0,17.2,30.06,West,272,0.0,0.0,78,0.00,,,0.00,WeatherCatV1.12B45,2013-01-11 16:51:00,
2013-01-11 08:56:00,23.4,17.5,30.06,West,272,0.0,0.0,78,0.00,,,0.00,WeatherCatV1.12B45,2013-01-11 16:56:00,
2013-01-11 09:01:00,23.7,17.9,30.06,West,270,0.0,2.7,78,0.00,,,0.00,WeatherCatV1.12B45,2013-01-11 17:01:00,
2013-01-11 09:06:00,24.1,18.2,30.08,West,270,0.0,0.0,78,0.00,,,0.00,WeatherCatV1.12B45,2013-01-11 17:06:00,
2013-01-11 09:11:00,24.4,18.3,30.08,West,270,0.0,0.0,77,0.00,,,0.00,WeatherCatV1.12B45,2013-01-11 17:11:00,
2013-01-11 09:16:00,24.8,18.6,30.08,West,270,0.0,0.0,77,0.00,,,0.00,WeatherCatV1.12B45,2013-01-11 17:16:00,
2013-01-11 09:21:00,25.2,19.0,30.08,West,270,0.0,0.0,77,0.00,,,0.00,WeatherCatV1.12B45,2013-01-11 17:21:00,
2013-01-11 09:26:00,25.2,18.7,30.08,East,91,0.0,0.0,76,0.00,,,0.00,WeatherCatV1.12B45,2013-01-11 17:26:00,
2013-01-11 09:31:00,25.5,17.4,30.08,East,91,0.0,0.0,71,0.00,,,0.00,WeatherCatV1.12B45,2013-01-11 17:31:00,
2013-01-11 09:36:00,25.3,16.6,30.08,East,90,0.0,0.0,69,0.00,,,0.00,WeatherCatV1.12B45,2013-01-11 17:36:00,
2013-01-11 09:41:00,25.2,15.8,30.08,NNW,342,0.0,0.0,67,0.00,,,0.00,WeatherCatV1.12B45,2013-01-11 17:41:00,
2013-01-11 09:46:00,25.0,15.3,30.08,NNW,342,0.0,0.0,66,0.00,,,0.00,WeatherCatV1.12B45,2013-01-11 17:46:00,
2013-01-11 09:51:00,24.8,15.1,30.08,NNW,342,0.0,0.0,66,0.00,,,0.00,WeatherCatV1.12B45,2013-01-11 17:51:00,
2013-01-11 09:56:00,24.8,14.7,30.08,NNW,342,0.0,0.0,65,0.00,,,0.00,WeatherCatV1.12B45,2013-01-11 17:56:00,
2013-01-11 10:01:00,24.8,14.7,30.08,NNW,342,0.0,0.0,65,0.00,,,0.00,WeatherCatV1.12B45,2013-01-11 18:01:00,
2013-01-11 10:06:00,25.0,14.5,30.08,NNW,341,0.0,0.0,64,0.00,,,0.00,WeatherCatV1.12B45,2013-01-11 18:06:00,
2013-01-11 10:11:00,25.3,14.2,30.08,West,279,0.0,0.0,62,0.00,,,0.00,WeatherCatV1.12B45,2013-01-11 18:11:00,
2013-01-11 10:16:00,25.7,14.1,30.08,West,279,0.0,0.0,61,0.00,,,0.00,WeatherCatV1.12B45,2013-01-11 18:16:00,
2013-01-11 10:21:00,25.5,13.6,30.11,West,279,0.0,0.0,60,0.00,,,0.00,WeatherCatV1.12B45,2013-01-11 18:21:00,
2013-01-11 10:26:00,25.9,13.6,30.11,West,279,0.0,0.0,59,0.00,,,0.00,WeatherCatV1.12B45,2013-01-11 18:26:00,
2013-01-11 10:31:00,25.9,13.6,30.11,West,279,0.0,0.0,59,0.00,,,0.00,WeatherCatV1.12B45,2013-01-11 18:31:00,
2013-01-11 10:36:00,26.1,13.7,30.11,West,279,0.0,0.0,59,0.00,,,0.00,WeatherCatV1.12B45,2013-01-11 18:36:00,
2013-01-11 10:41:00,26.1,13.3,30.11,NNE,25,0.0,0.0,58,0.00,,,0.00,WeatherCatV1.12B45,2013-01-11 18:41:00,
2013-01-11 10:46:00,26.1,12.5,30.11,NE,42,0.0,0.0,56,0.00,,,0.00,WeatherCatV1.12B45,2013-01-11 18:46:00,
2013-01-11 10:51:00,26.2,13.1,30.11,NE,42,0.0,0.0,57,0.00,,,0.00,WeatherCatV1.12B45,2013-01-11 18:51:00,
2013-01-11 10:56:00,26.2,12.3,30.11,NE,34,0.0,3.6,55,0.00,,,0.00,WeatherCatV1.12B45,2013-01-11 18:56:00,
2013-01-11 11:01:00,26.4,12.5,30.11,WNW,301,3.6,3.6,55,0.00,,,0.00,WeatherCatV1.12B45,2013-01-11 19:01:00,
2013-01-11 11:06:00,26.4,11.6,30.11,ENE,71,2.7,4.0,53,0.00,,,0.00,WeatherCatV1.12B45,2013-01-11 19:06:00,
2013-01-11 11:11:00,26.6,11.4,30.11,NE,48,0.0,0.0,52,0.00,,,0.00,WeatherCatV1.12B45,2013-01-11 19:11:00,
2013-01-11 11:16:00,26.8,11.1,30.11,NNE,22,3.6,4.0,51,0.00,,,0.00,WeatherCatV1.12B45,2013-01-11 19:16:00,
2013-01-11 11:22:00,27.0,11.3,30.11,NNE,22,4.0,4.0,51,0.00,,,0.00,WeatherCatV1.12B45,2013-01-11 19:22:00,
2013-01-11 11:27:00,27.3,11.2,30.11,NNE,22,0.0,0.0,50,0.00,,,0.00,WeatherCatV1.12B45,2013-01-11 19:27:00,
2013-01-11 11:32:00,27.5,10.9,30.11,NNE,22,0.0,0.0,49,0.00,,,0.00,WeatherCatV1.12B45,2013-01-11 19:32:00,
2013-01-11 11:37:00,27.5,11.3,30.11,NNE,22,0.0,0.0,50,0.00,,,0.00,WeatherCatV1.12B45,2013-01-11 19:37:00,
2013-01-11 11:42:00,27.7,11.5,30.11,NNE,22,0.0,2.2,50,0.00,,,0.00,WeatherCatV1.12B45,2013-01-11 19:42:00,
2013-01-11 11:47:00,27.9,10.7,30.11,ENE,71,0.0,2.7,48,0.00,,,0.00,WeatherCatV1.12B45,2013-01-11 19:47:00,
2013-01-11 11:50:00,27.9,11.2,30.11,ENE,71,2.7,3.1,49,0.00,,,0.00,WeatherCatV1.12B45,2013-01-11 19:50:00,
2013-01-11 11:55:00,27.9,10.7,30.11,East,88,2.7,3.6,48,0.00,,,0.00,WeatherCatV1.12B45,2013-01-11 19:55:00,
2013-01-11 12:00:00,28.0,10.4,30.11,East,85,0.0,4.0,47,0.00,,,0.00,WeatherCatV1.12B45,2013-01-11 20:00:00,
2013-01-11 12:05:00,28.4,11.2,30.11,WNW,298,0.0,2.7,48,0.00,,,0.00,WeatherCatV1.12B45,2013-01-11 20:05:00,
2013-01-11 12:10:00,28.6,11.4,30.11,NNE,24,0.0,3.1,48,0.00,,,0.00,WeatherCatV1.12B45,2013-01-11 20:10:00,
2013-01-11 12:15:00,28.9,11.3,30.11,WSW,248,0.0,0.0,47,0.00,,,0.00,WeatherCatV1.12B45,2013-01-11 20:15:00,
2013-01-11 12:20:00,29.1,11.9,30.11,West,270,0.0,0.0,48,0.00,,,0.00,WeatherCatV1.12B45,2013-01-11 20:20:00,
2013-01-11 12:25:00,29.3,11.6,30.11,West,270,0.0,2.7,47,0.00,,,0.00,WeatherCatV1.12B45,2013-01-11 20:25:00,
2013-01-11 12:30:00,29.5,11.3,30.11,West,270,0.0,0.0,46,0.00,,,0.00,WeatherCatV1.12B45,2013-01-11 20:30:00,
2013-01-11 12:35:00,29.7,11.0,30.11,West,269,0.0,0.0,45,0.00,,,0.00,WeatherCatV1.12B45,2013-01-11 20:35:00,
2013-01-11 12:40:00,29.7,11.0,30.11,West,269,0.0,0.0,45,0.00,,,0.00,WeatherCatV1.12B45,2013-01-11 20:40:00,
2013-01-11 12:45:00,29.4,10.7,30.11,SW,226,0.0,0.0,45,0.00,,,0.00,WeatherCatV1.12B45,2013-01-11 20:45:00,
2013-01-11 12:50:00,29.4,10.7,30.11,SW,226,0.0,0.0,45,0.00,,,0.00,WeatherCatV1.12B45,2013-01-11 20:50:00,
2013-01-11 12:55:00,29.2,10.3,30.11,SSE,166,0.0,0.0,45,0.00,,,0.00,WeatherCatV1.12B45,2013-01-11 20:55:00,
2013-01-11 13:00:00,28.9,9.8,30.11,ESE,105,0.0,0.0,44,0.00,,,0.00,WeatherCatV1.12B45,2013-01-11 21:00:00,
2013-01-11 13:11:00,28.9,9.8,30.11,ESE,105,0.0,0.0,44,0.00,,,0.00,WeatherCatV1.12B45,2013-01-11 21:11:00,
2013-01-11 13:16:00,28.6,9.0,30.11,SE,140,0.0,0.0,43,0.00,,,0.00,WeatherCatV1.12B45,2013-01-11 21:16:00,
2013-01-11 13:21:00,28.6,9.5,30.11,SE,140,0.0,0.0,44,0.00,,,0.00,WeatherCatV1.12B45,2013-01-11 21:21:00,
2013-01-11 13:26:00,28.2,9.1,30.11,East,93,0.0,0.0,44,0.00,,,0.00,WeatherCatV1.12B45,2013-01-11 21:26:00,
2013-01-11 13:31:00,28.0,9.0,30.11,WSW,239,0.0,0.0,44,0.00,,,0.00,WeatherCatV1.12B45,2013-01-11 21:31:00,
2013-01-11 13:36:00,28.0,9.0,30.11,WSW,239,0.0,0.0,44,0.00,,,0.00,WeatherCatV1.12B45,2013-01-11 21:36:00,
2013-01-11 13:41:00,28.0,9.0,30.11,NE,43,0.0,0.0,44,0.00,,,0.00,WeatherCatV1.12B45,2013-01-11 21:41:00,
2013-01-11 13:46:00,28.0,8.5,30.11,NE,41,0.0,0.0,43,0.00,,,0.00,WeatherCatV1.12B45,2013-01-11 21:46:00,
2013-01-11 13:51:00,27.9,8.8,30.11,NE,41,0.0,0.0,44,0.00,,,0.00,WeatherCatV1.12B45,2013-01-11 21:51:00,
2013-01-11 13:56:00,27.9,8.8,30.11,NNW,334,0.0,0.0,44,0.00,,,0.00,WeatherCatV1.12B45,2013-01-11 21:56:00,
2013-01-11 14:01:00,27.7,8.6,30.11,NNW,334,0.0,0.0,44,0.00,,,0.00,WeatherCatV1.12B45,2013-01-11 22:01:00,
2013-01-11 14:06:00,27.1,8.6,30.11,NNW,334,0.0,0.0,45,0.00,,,0.00,WeatherCatV1.12B45,2013-01-11 22:06:00,
2013-01-11 14:11:00,26.8,8.3,30.11,NNW,334,0.0,0.0,45,0.00,,,0.00,WeatherCatV1.12B45,2013-01-11 22:11:00,
2013-01-11 14:16:00,26.6,8.6,30.11,NNW,334,0.0,0.0,46,0.00,,,0.00,WeatherCatV1.12B45,2013-01-11 22:16:00,
2013-01-11 14:21:00,26.2,7.8,30.11,NNW,334,0.0,0.0,45,0.00,,,0.00,WeatherCatV1.12B45,2013-01-11 22:21:00,
2013-01-11 14:26:00,26.1,8.1,30.11,NNW,334,0.0,0.0,46,0.00,,,0.00,WeatherCatV1.12B45,2013-01-11 22:26:00,
2013-01-11 14:31:00,25.5,7.7,30.11,NNW,334,0.0,0.0,46,0.00,,,0.00,WeatherCatV1.12B45,2013-01-11 22:31:00,
2013-01-11 14:36:00,25.0,7.6,30.11,NNW,334,0.0,0.0,47,0.00,,,0.00,WeatherCatV1.12B45,2013-01-11 22:36:00,
2013-01-11 14:41:00,24.8,7.9,30.11,NNW,334,0.0,0.0,48,0.00,,,0.00,WeatherCatV1.12B45,2013-01-11 22:41:00,
2013-01-11 14:46:00,24.4,7.6,30.11,NNW,334,0.0,0.0,48,0.00,,,0.00,WeatherCatV1.12B45,2013-01-11 22:46:00,
2013-01-11 14:51:00,24.1,7.7,30.11,NNW,334,0.0,0.0,49,0.00,,,0.00,WeatherCatV1.12B45,2013-01-11 22:51:00,
2013-01-11 14:56:00,23.7,8.3,30.11,NNW,334,0.0,0.0,51,0.00,,,0.00,WeatherCatV1.12B45,2013-01-11 22:56:00,
2013-01-11 15:01:00,23.5,8.5,30.11,NNW,334,0.0,0.0,52,0.00,,,0.00,WeatherCatV1.12B45,2013-01-11 23:01:00,
2013-01-11 15:06:00,23.4,8.4,30.14,NNW,334,0.0,0.0,52,0.00,,,0.00,WeatherCatV1.12B45,2013-01-11 23:06:00,
2013-01-11 15:11:00,23.2,8.2,30.14,NNW,334,0.0,0.0,52,0.00,,,0.00,WeatherCatV1.12B45,2013-01-11 23:11:00,
2013-01-11 15:16:00,23.0,8.4,30.14,NNW,334,0.0,0.0,53,0.00,,,0.00,WeatherCatV1.12B45,2013-01-11 23:16:00,
2013-01-11 15:21:00,22.8,8.3,30.14,NNW,334,0.0,0.0,53,0.00,,,0.00,WeatherCatV1.12B45,2013-01-11 23:21:00,
2013-01-11 15:26:00,23.0,8.4,30.14,NNW,334,0.0,0.0,53,0.00,,,0.00,WeatherCatV1.12B45,2013-01-11 23:26:00,
2013-01-11 15:31:00,22.8,8.3,30.14,NNW,334,0.0,0.0,53,0.00,,,0.00,WeatherCatV1.12B45,2013-01-11 23:31:00,
2013-01-11 15:36:00,22.8,8.7,30.14,SW,235,0.0,0.0,54,0.00,,,0.00,WeatherCatV1.12B45,2013-01-11 23:36:00,
2013-01-11 15:41:00,22.6,8.5,30.14,SW,235,0.0,0.0,54,0.00,,,0.00,WeatherCatV1.12B45,2013-01-11 23:41:00,
2013-01-11 15:46:00,22.3,8.2,30.14,SW,235,0.0,0.0,54,0.00,,,0.00,WeatherCatV1.12B45,2013-01-11 23:46:00,
2013-01-11 15:51:00,22.1,8.4,30.14,SW,235,0.0,0.0,55,0.00,,,0.00,WeatherCatV1.12B45,2013-01-11 23:51:00,
2013-01-11 15:56:00,21.9,8.3,30.14,SW,235,0.0,0.0,55,0.00,,,0.00,WeatherCatV1.12B45,2013-01-11 23:56:00,
2013-01-11 16:01:00,21.7,8.5,30.14,SW,235,0.0,0.0,56,0.00,,,0.00,WeatherCatV1.12B45,2013-01-12 00:01:00,
2013-01-11 16:06:00,21.7,8.5,30.14,SW,235,0.0,0.0,56,0.00,,,0.00,WeatherCatV1.12B45,2013-01-12 00:06:00,
2013-01-11 16:11:00,21.7,8.9,30.14,SW,235,0.0,0.0,57,0.00,,,0.00,WeatherCatV1.12B45,2013-01-12 00:11:00,
2013-01-11 16:16:00,21.6,8.7,30.14,SW,235,0.0,0.0,57,0.00,,,0.00,WeatherCatV1.12B45,2013-01-12 00:16:00,
2013-01-11 16:21:00,21.4,8.5,30.14,SW,235,0.0,0.0,57,0.00,,,0.00,WeatherCatV1.12B45,2013-01-12 00:21:00,
2013-01-11 16:26:00,21.4,8.5,30.14,SW,235,0.0,0.0,57,0.00,,,0.00,WeatherCatV1.12B45,2013-01-12 00:26:00,
2013-01-11 16:31:00,21.2,8.4,30.14,SW,235,0.0,0.0,57,0.00,,,0.00,WeatherCatV1.12B45,2013-01-12 00:31:00,
2013-01-11 16:36:00,21.2,8.4,30.14,SW,233,4.0,4.0,57,0.00,,,0.00,WeatherCatV1.12B45,2013-01-12 00:36:00,
2013-01-11 16:41:00,21.4,8.5,30.14,SW,231,3.1,3.6,57,0.00,,,0.00,WeatherCatV1.12B45,2013-01-12 00:41:00,
2013-01-11 16:46:00,21.6,8.3,30.14,SW,231,2.7,3.6,56,0.00,,,0.00,WeatherCatV1.12B45,2013-01-12 00:46:00,
2013-01-11 16:51:00,21.6,7.9,30.14,SSW,206,3.1,3.1,55,0.00,,,0.00,WeatherCatV1.12B45,2013-01-12 00:51:00,
2013-01-11 16:56:00,21.4,7.8,30.14,SSW,206,2.7,3.1,55,0.00,,,0.00,WeatherCatV1.12B45,2013-01-12 00:56:00,
2013-01-11 17:01:00,21.2,7.6,30.14,SSW,210,2.7,3.6,55,0.00,,,0.00,WeatherCatV1.12B45,2013-01-12 01:01:00,
2013-01-11 17:06:00,21.4,7.4,30.17,SW,221,3.1,3.6,54,0.00,,,0.00,WeatherCatV1.12B45,2013-01-12 01:06:00,
2013-01-11 17:11:00,21.4,7.4,30.17,SW,218,3.1,3.6,54,0.00,,,0.00,WeatherCatV1.12B45,2013-01-12 01:11:00,
2013-01-11 17:16:00,21.4,7.4,30.17,WSW,243,2.7,4.0,54,0.00,,,0.00,WeatherCatV1.12B45,2013-01-12 01:16:00,
2013-01-11 17:21:00,21.4,6.9,30.17,SW,221,4.0,4.0,53,0.00,,,0.00,WeatherCatV1.12B45,2013-01-12 01:21:00,
2013-01-11 17:26:00,21.7,6.9,30.17,SW,234,3.6,4.0,52,0.00,,,0.00,WeatherCatV1.12B45,2013-01-12 01:26:00,
2013-01-11 17:31:00,21.9,7.0,30.17,WSW,238,4.0,4.0,52,0.00,,,0.00,WeatherCatV1.12B45,2013-01-12 01:31:00,
2013-01-11 17:37:00,21.7,6.9,30.17,WSW,238,4.5,4.5,52,0.00,,,0.00,WeatherCatV1.12B45,2013-01-12 01:37:00,
2013-01-11 17:42:00,21.9,7.4,30.17,SW,223,4.9,5.4,53,0.00,,,0.00,WeatherCatV1.12B45,2013-01-12 01:42:00,
2013-01-11 17:47:00,22.3,7.8,30.17,SW,222,4.5,4.9,53,0.00,,,0.00,WeatherCatV1.12B45,2013-01-12 01:47:00,
2013-01-11 17:52:00,22.5,7.9,30.17,SW,220,4.5,5.4,53,0.00,,,0.00,WeatherCatV1.12B45,2013-01-12 01:52:00,
2013-01-11 17:57:00,22.6,7.7,30.17,SW,228,3.1,4.5,52,0.00,,,0.00,WeatherCatV1.12B45,2013-01-12 01:57:00,
2013-01-11 18:02:00,21.9,7.0,30.17,SW,228,3.6,3.6,52,0.00,,,0.00,WeatherCatV1.12B45,2013-01-12 02:02:00,
2013-01-11 18:07:00,21.4,6.9,30.17,SW,225,3.1,4.0,53,0.00,,,0.00,WeatherCatV1.12B45,2013-01-12 02:07:00,
2013-01-11 18:12:00,21.7,7.7,30.17,SW,215,5.4,7.6,54,0.00,,,0.00,WeatherCatV1.12B45,2013-01-12 02:12:00,
2013-01-11 18:17:00,22.1,7.6,30.17,SW,222,5.8,7.2,53,0.00,,,0.00,WeatherCatV1.12B45,2013-01-12 02:17:00,
2013-01-11 18:22:00,22.3,7.4,30.17,SW,229,5.4,6.7,52,0.00,,,0.00,WeatherCatV1.12B45,2013-01-12 02:22:00,
2013-01-11 18:27:00,22.6,7.3,30.17,SW,220,5.4,5.8,51,0.00,,,0.00,WeatherCatV1.12B45,2013-01-12 02:27:00,
2013-01-11 18:32:00,22.8,7.0,30.17,SW,226,5.8,7.6,50,0.00,,,0.00,WeatherCatV1.12B45,2013-01-12 02:32:00,
2013-01-11 18:37:00,22.5,6.7,30.17,SW,234,6.3,7.6,50,0.00,,,0.00,WeatherCatV1.12B45,2013-01-12 02:37:00,
2013-01-11 18:42:00,22.5,6.7,30.17,SW,221,5.8,6.7,50,0.00,,,0.00,WeatherCatV1.12B45,2013-01-12 02:42:00,
2013-01-11 18:47:00,22.5,6.7,30.17,SW,215,5.4,5.4,50,0.00,,,0.00,WeatherCatV1.12B45,2013-01-12 02:47:00,
2013-01-11 18:52:00,22.1,6.3,30.17,SW,225,4.0,5.4,50,0.00,,,0.00,WeatherCatV1.12B45,2013-01-12 02:52:00,
2013-01-11 18:57:00,21.6,6.3,30.17,SW,228,5.4,5.8,51,0.00,,,0.00,WeatherCatV1.12B45,2013-01-12 02:57:00,
2013-01-11 19:02:00,21.2,6.4,30.17,SW,216,3.6,3.6,52,0.00,,,0.00,WeatherCatV1.12B45,2013-01-12 03:02:00,
2013-01-11 19:07:00,20.8,6.0,30.17,SW,216,4.0,4.0,52,0.00,,,0.00,WeatherCatV1.12B45,2013-01-12 03:07:00,
2013-01-11 19:12:00,20.7,6.3,30.17,SSW,209,3.1,4.9,53,0.00,,,0.00,WeatherCatV1.12B45,2013-01-12 03:12:00,
2013-01-11 19:17:00,20.7,6.3,30.17,SSW,213,3.6,5.8,53,0.00,,,0.00,WeatherCatV1.12B45,2013-01-12 03:17:00,
2013-01-11 19:22:00,20.7,6.3,30.17,SW,220,4.9,5.4,53,0.00,,,0.00,WeatherCatV1.12B45,2013-01-12 03:22:00,
2013-01-11 19:27:00,20.7,6.3,30.17,SW,219,4.9,5.8,53,0.00,,,0.00,WeatherCatV1.12B45,2013-01-12 03:27:00,
2013-01-11 19:32:00,20.7,6.3,30.17,SW,220,4.0,4.0,53,0.00,,,0.00,WeatherCatV1.12B45,2013-01-12 03:32:00,
2013-01-11 19:37:00,20.5,6.1,30.17,SW,224,4.0,4.5,53,0.00,,,0.00,WeatherCatV1.12B45,2013-01-12 03:37:00,
2013-01-11 19:42:00,20.1,5.8,30.17,SW,225,2.2,2.7,53,0.00,,,0.00,WeatherCatV1.12B45,2013-01-12 03:42:00,
2013-01-11 19:47:00,19.6,5.3,30.17,SW,225,0.0,0.0,53,0.00,,,0.00,WeatherCatV1.12B45,2013-01-12 03:47:00,
2013-01-11 19:52:00,19.4,5.9,30.17,SW,225,0.0,0.0,55,0.00,,,0.00,WeatherCatV1.12B45,2013-01-12 03:52:00,
2013-01-11 19:57:00,18.7,5.2,30.17,SW,225,0.0,0.0,55,0.00,,,0.00,WeatherCatV1.12B45,2013-01-12 03:57:00,
2013-01-11 20:02:00,18.3,5.3,30.17,SW,225,0.0,0.0,56,0.00,,,0.00,WeatherCatV1.12B45,2013-01-12 04:02:00,
2013-01-11 20:07:00,18.1,5.5,30.17,SW,225,0.0,0.0,57,0.00,,,0.00,WeatherCatV1.12B45,2013-01-12 04:07:00,
2013-01-11 20:12:00,18.1,5.9,30.17,SW,225,0.0,0.0,58,0.00,,,0.00,WeatherCatV1.12B45,2013-01-12 04:12:00,
2013-01-11 20:17:00,17.8,5.5,30.17,SW,225,0.0,0.0,58,0.00,,,0.00,WeatherCatV1.12B45,2013-01-12 04:17:00,
2013-01-11 20:22:00,17.8,5.9,30.17,SW,225,0.0,0.0,59,0.00,,,0.00,WeatherCatV1.12B45,2013-01-12 04:22:00,
2013-01-11 20:27:00,17.8,6.3,30.17,SW,225,0.0,0.0,60,0.00,,,0.00,WeatherCatV1.12B45,2013-01-12 04:27:00,
2013-01-11 20:32:00,17.6,6.1,30.17,SW,225,0.0,0.0,60,0.00,,,0.00,WeatherCatV1.12B45,2013-01-12 04:32:00,
2013-01-11 20:37:00,17.1,5.6,30.17,SW,225,0.0,0.0,60,0.00,,,0.00,WeatherCatV1.12B45,2013-01-12 04:37:00,
2013-01-11 20:42:00,16.5,5.4,30.17,SW,225,0.0,0.0,61,0.00,,,0.00,WeatherCatV1.12B45,2013-01-12 04:42:00,
2013-01-11 20:47:00,16.0,5.3,30.17,SW,225,0.0,0.0,62,0.00,,,0.00,WeatherCatV1.12B45,2013-01-12 04:47:00,
2013-01-11 20:52:00,15.8,5.5,30.17,SW,225,0.0,0.0,63,0.00,,,0.00,WeatherCatV1.12B45,2013-01-12 04:52:00,
2013-01-11 20:57:00,15.3,5.3,30.17,SW,225,0.0,0.0,64,0.00,,,0.00,WeatherCatV1.12B45,2013-01-12 04:57:00,
2013-01-11 21:00:00,15.3,5.6,30.17,SW,225,0.0,0.0,65,0.00,,,0.00,WeatherCatV1.12B45,2013-01-12 05:00:00,
2013-01-11 21:01:00,15.3,5.6,30.17,SW,225,0.0,0.0,65,0.00,,,0.00,WeatherCatV1.12B45,2013-01-12 05:01:00,
2013-01-11 21:06:00,15.1,5.8,30.17,SW,225,0.0,0.0,66,0.00,,,0.00,WeatherCatV1.12B45,2013-01-12 05:06:00,
2013-01-11 21:11:00,15.1,5.8,30.17,SW,225,0.0,0.0,66,0.00,,,0.00,WeatherCatV1.12B45,2013-01-12 05:11:00,
2013-01-11 21:16:00,15.1,6.1,30.17,SW,225,0.0,0.0,67,0.00,,,0.00,WeatherCatV1.12B45,2013-01-12 05:16:00,
2013-01-11 21:21:00,15.3,6.6,30.17,SW,225,0.0,0.0,68,0.00,,,0.00,WeatherCatV1.12B45,2013-01-12 05:21:00,
2013-01-11 21:26:00,15.8,7.8,30.17,SW,225,2.2,2.2,70,0.00,,,0.00,WeatherCatV1.12B45,2013-01-12 05:26:00,
2013-01-11 21:31:00,15.6,7.3,30.17,SW,225,0.0,0.0,69,0.00,,,0.00,WeatherCatV1.12B45,2013-01-12 05:31:00,
2013-01-11 21:36:00,15.6,7.3,30.17,SW,225,3.1,3.1,69,0.00,,,0.00,WeatherCatV1.12B45,2013-01-12 05:36:00,
2013-01-11 21:41:00,16.2,8.4,30.17,West,276,2.2,3.1,71,0.00,,,0.00,WeatherCatV1.12B45,2013-01-12 05:41:00,
2013-01-11 21:46:00,16.2,8.7,30.17,NE,42,0.0,0.0,72,0.00,,,0.00,WeatherCatV1.12B45,2013-01-12 05:46:00,
2013-01-11 21:51:00,16.2,8.7,30.17,SSE,166,2.7,4.0,72,0.00,,,0.00,WeatherCatV1.12B45,2013-01-12 05:51:00,
2013-01-11 21:56:00,16.2,9.1,30.17,SSW,195,3.1,7.6,73,0.00,,,0.00,WeatherCatV1.12B45,2013-01-12 05:56:00,
2013-01-11 22:00:00,16.2,9.1,30.17,East,101,4.0,6.3,73,0.00,,,0.00,WeatherCatV1.12B45,2013-01-12 06:00:00,
2013-01-11 22:05:00,16.0,8.6,30.17,South,169,2.7,6.3,72,0.00,,,0.00,WeatherCatV1.12B45,2013-01-12 06:05:00,
2013-01-11 22:10:00,15.4,8.1,30.17,South,185,7.2,7.2,72,0.00,,,0.00,WeatherCatV1.12B45,2013-01-12 06:10:00,
2013-01-11 22:15:00,15.3,7.9,30.17,SW,230,6.3,6.3,72,0.00,,,0.00,WeatherCatV1.12B45,2013-01-12 06:15:00,
2013-01-11 22:20:00,15.1,8.0,30.17,South,179,3.6,5.8,73,0.00,,,0.00,WeatherCatV1.12B45,2013-01-12 06:20:00,
2013-01-11 22:25:00,14.9,8.1,30.17,South,191,4.9,8.1,74,0.00,,,0.00,WeatherCatV1.12B45,2013-01-12 06:25:00,
2013-01-11 22:30:00,14.5,7.8,30.17,WSW,242,3.1,6.3,74,0.00,,,0.00,WeatherCatV1.12B45,2013-01-12 06:30:00,
2013-01-11 22:35:00,14.2,7.4,30.17,West,265,3.1,4.0,74,0.00,,,0.00,WeatherCatV1.12B45,2013-01-12 06:35:00,
2013-01-11 22:40:00,13.8,7.4,30.17,WSW,244,0.0,0.0,75,0.00,,,0.00,WeatherCatV1.12B45,2013-01-12 06:40:00,
2013-01-11 22:45:00,13.6,7.2,30.17,NNW,339,2.7,6.3,75,0.00,,,0.00,WeatherCatV1.12B45,2013-01-12 06:45:00,
2013-01-11 22:50:00,13.3,6.9,30.17,NNE,28,3.1,5.4,75,0.00,,,0.00,WeatherCatV1.12B45,2013-01-12 06:50:00,
2013-01-11 22:55:00,13.1,6.7,30.17,NE,41,3.6,4.0,75,0.00,,,0.00,WeatherCatV1.12B45,2013-01-12 06:55:00,
2013-01-11 23:00:00,13.1,6.7,30.17,NE,51,4.0,5.8,75,0.00,,,0.00,WeatherCatV1.12B45,2013-01-12 07:00:00,
2013-01-11 23:05:00,12.9,6.5,30.17,SE,143,3.6,5.4,75,0.00,,,0.00,WeatherCatV1.12B45,2013-01-12 07:05:00,
2013-01-11 23:10:00,12.7,6.3,30.17,SW,225,3.1,4.0,75,0.00,,,0.00,WeatherCatV1.12B45,2013-01-12 07:10:00,
2013-01-11 23:15:00,12.9,6.5,30.17,NE,36,3.1,3.1,75,0.00,,,0.00,WeatherCatV1.12B45,2013-01-12 07:15:00,
2013-01-11 23:20:00,13.3,6.9,30.17,South,186,2.2,2.7,75,0.00,,,0.00,WeatherCatV1.12B45,2013-01-12 07:20:00,
2013-01-11 23:25:00,13.8,7.4,30.17,NNE,15,2.7,5.4,75,0.00,,,0.00,WeatherCatV1.12B45,2013-01-12 07:25:00,
2013-01-11 23:30:00,14.2,9.7,30.17,NE,41,5.8,5.8,82,0.00,,,0.00,WeatherCatV1.12B45,2013-01-12 07:30:00,
2013-01-11 23:35:00,14.5,10.1,30.17,North,2,0.0,5.4,82,0.00,,,0.00,WeatherCatV1.12B45,2013-01-12 07:35:00,
2013-01-11 23:40:00,14.9,10.4,30.17,North,2,0.0,2.7,82,0.00,,,0.00,WeatherCatV1.12B45,2013-01-12 07:40:00,
2013-01-11 23:45:00,15.3,10.5,30.17,North,2,0.0,0.0,81,0.00,,,0.00,WeatherCatV1.12B45,2013-01-12 07:45:00,
2013-01-11 23:50:00,15.3,10.2,30.17,WNW,303,3.6,4.0,80,0.00,,,0.00,WeatherCatV1.12B45,2013-01-12 07:50:00,
2013-01-11 23:55:00,15.4,10.4,30.17,NW,310,4.0,4.5,80,0.00,,,0.00,WeatherCatV1.12B45,2013-01-12 07:55:00,